Time;durP1;ratioP1;P1;durP2;ratioP2;P2;SDS_P1;SDS_P2;PMS_P1;PMS_P2;Temp;Humidity;BMP_temperature;BMP_pressure;BME280_temperature;BME280_humidity;BME280_pressure;Samples;Min_cycle;Max_cycle;Signal;HPM_P1;HPM_P2
2022/03/22 00:01:24;;;;;;;19.60;11.32;;;;;;;4.28;nan;103700.34;4970759;28;20023;-78
2022/03/22 00:03:50;;;;;;;27.73;12.23;;;;;;;4.23;nan;103699.91;4964919;28;20432;-78
2022/03/22 00:06:18;;;;;;;25.58;13.23;;;;;;;4.03;nan;103703.44;4970484;28;20081;-78
2022/03/22 00:08:43;;;;;;;23.33;12.45;;;;;;;3.88;nan;103706.44;4969243;28;20026;-78
2022/03/22 00:11:09;;;;;;;26.55;13.05;;;;;;;3.84;nan;103704.19;4961494;28;20432;-78
2022/03/22 00:13:35;;;;;;;24.25;12.35;;;;;;;3.86;nan;103703.09;4967039;28;20085;-78
2022/03/22 00:16:01;;;;;;;26.73;12.52;;;;;;;3.88;nan;103705.59;4967037;28;20102;-78
2022/03/22 00:18:27;;;;;;;27.70;11.85;;;;;;;3.86;nan;103708.41;4969350;28;20512;-77
2022/03/22 00:20:52;;;;;;;27.95;11.90;;;;;;;3.86;nan;103708.41;4967647;28;20119;-77
2022/03/22 00:23:21;;;;;;;29.65;13.05;;;;;;;3.82;nan;103704.31;4963329;28;20380;-77
2022/03/22 00:25:47;;;;;;;23.80;12.00;;;;;;;3.72;nan;103695.47;4963070;28;20551;-80
2022/03/22 00:28:13;;;;;;;24.38;12.20;;;;;;;3.70;nan;103701.88;4966470;28;20026;-77
2022/03/22 00:30:39;;;;;;;25.90;12.57;;;;;;;3.70;nan;103704.53;4965408;28;20622;-79
2022/03/22 00:33:07;;;;;;;22.95;12.85;;;;;;;3.68;nan;103707.31;4967147;28;21022;-78
2022/03/22 00:35:36;;;;;;;28.73;12.23;;;;;;;3.67;nan;103708.28;4968212;28;20177;-77
2022/03/22 00:38:08;;;;;;;27.15;13.15;;;;;;;3.66;nan;103706.59;4963998;28;20110;-78
2022/03/22 00:40:34;;;;;;;24.73;12.32;;;;;;;3.66;nan;103701.31;4962404;28;20030;-77
2022/03/22 00:43:00;;;;;;;28.42;12.98;;;;;;;3.66;nan;103703.13;4964738;28;20034;-77
2022/03/22 00:45:32;;;;;;;27.90;12.25;;;;;;;3.64;nan;103696.13;4966866;28;20023;-77
2022/03/22 00:47:59;;;;;;;27.98;13.35;;;;;;;3.63;nan;103696.25;4966433;28;20039;-77
2022/03/22 00:50:29;;;;;;;25.88;12.30;;;;;;;3.60;nan;103696.53;4959236;28;20106;-77
2022/03/22 00:52:56;;;;;;;24.95;11.48;;;;;;;3.57;nan;103691.47;4971593;28;20031;-77
2022/03/22 00:55:23;;;;;;;26.27;13.05;;;;;;;3.55;nan;103698.72;4964886;28;20030;-77
2022/03/22 00:57:51;;;;;;;25.15;12.82;;;;;;;3.51;nan;103702.59;4964668;28;20046;-77
2022/03/22 01:00:16;;;;;;;28.23;12.45;;;;;;;3.49;nan;103688.63;4968523;28;20037;-77
2022/03/22 01:02:45;;;;;;;24.98;13.35;;;;;;;3.47;nan;103693.22;4962724;28;20023;-78
2022/03/22 01:05:15;;;;;;;26.73;12.30;;;;;;;3.42;nan;103688.31;4965376;28;20026;-77
2022/03/22 01:07:42;;;;;;;24.98;12.55;;;;;;;3.41;nan;103691.06;4966123;28;20022;-78
2022/03/22 01:10:10;;;;;;;24.70;12.23;;;;;;;3.39;nan;103685.91;4965632;28;20097;-77
2022/03/22 01:12:38;;;;;;;29.02;13.00;;;;;;;3.36;nan;103691.47;4968339;28;20046;-76
2022/03/22 01:15:09;;;;;;;32.35;13.50;;;;;;;3.33;nan;103686.41;4965660;28;20033;-78
2022/03/22 01:17:34;;;;;;;30.55;12.93;;;;;;;3.30;nan;103690.19;4962751;28;20023;-77
2022/03/22 01:20:00;;;;;;;37.88;14.48;;;;;;;3.26;nan;103688.75;4969826;28;20046;-76
2022/03/22 01:22:25;;;;;;;35.70;14.13;;;;;;;3.23;nan;103694.31;4969353;28;20058;-77
2022/03/22 01:24:52;;;;;;;35.05;13.63;;;;;;;3.20;nan;103694.53;4963181;28;20022;-78
2022/03/22 01:27:21;;;;;;;27.95;13.05;;;;;;;3.17;nan;103692.16;4967435;28;20042;-77
2022/03/22 01:29:47;;;;;;;32.72;12.57;;;;;;;3.12;nan;103694.34;4967409;28;20030;-77
2022/03/22 01:32:13;;;;;;;26.20;12.90;;;;;;;3.10;nan;103683.03;4965312;28;20031;-76
2022/03/22 01:34:39;;;;;;;25.20;12.05;;;;;;;3.08;nan;103682.34;4963547;28;20027;-78
2022/03/22 01:37:05;;;;;;;26.10;12.52;;;;;;;3.05;nan;103679.91;4961931;28;20078;-76
2022/03/22 01:39:31;;;;;;;27.58;12.98;;;;;;;3.01;nan;103679.34;4965681;28;20038;-76
2022/03/22 01:41:57;;;;;;;25.58;11.30;;;;;;;3.00;nan;103682.13;4960717;28;20301;-77
2022/03/22 01:44:24;;;;;;;27.42;12.30;;;;;;;2.98;nan;103678.75;4964310;28;20057;-76
2022/03/22 01:46:54;;;;;;;27.15;12.90;;;;;;;2.95;nan;103681.66;4962158;28;20031;-76
2022/03/22 01:49:19;;;;;;;25.65;12.70;;;;;;;2.93;nan;103673.00;4962910;28;20633;-77
2022/03/22 01:51:48;;;;;;;23.70;13.07;;;;;;;2.90;nan;103675.91;4964496;28;20035;-76
2022/03/22 01:54:28;;;;;;;29.02;12.55;;;;;;;2.88;nan;103669.91;4967744;28;20039;-77
2022/03/22 01:56:54;;;;;;;28.30;13.45;;;;;;;2.86;nan;103671.81;4966446;28;20089;-76
2022/03/22 01:59:19;;;;;;;26.92;12.88;;;;;;;2.83;nan;103667.59;4963779;28;20022;-77
2022/03/22 02:07:15;;;;;;;27.52;12.82;;;;;;;2.75;nan;103661.28;4965267;28;20694;-76
2022/03/22 02:09:41;;;;;;;25.70;13.02;;;;;;;2.73;nan;103654.28;4967570;28;20077;-76
2022/03/22 02:12:09;;;;;;;27.13;13.82;;;;;;;2.71;nan;103656.22;4964721;28;20030;-76
2022/03/22 02:14:35;;;;;;;25.85;12.80;;;;;;;2.68;nan;103659.09;4966200;28;20038;-76
2022/03/22 02:17:10;;;;;;;27.00;13.68;;;;;;;2.61;nan;103663.22;4965708;28;20030;-76
2022/03/22 02:19:38;;;;;;;30.25;13.57;;;;;;;2.62;nan;103656.97;4966855;28;20549;-78
2022/03/22 02:22:08;;;;;;;25.88;12.88;;;;;;;2.59;nan;103662.50;4966219;28;20030;-76
2022/03/22 02:24:35;;;;;;;27.13;13.95;;;;;;;2.55;nan;103666.38;4962736;28;20031;-76
2022/03/22 02:27:00;;;;;;;26.52;14.50;;;;;;;2.53;nan;103663.03;4968377;28;20035;-76
2022/03/22 02:29:26;;;;;;;28.60;13.55;;;;;;;2.51;nan;103659.63;4963117;28;20023;-79
2022/03/22 02:31:54;;;;;;;29.73;15.30;;;;;;;2.47;nan;103668.78;4959853;28;20027;-76
2022/03/22 02:34:19;;;;;;;32.10;15.38;;;;;;;2.44;nan;103666.38;4959975;28;20027;-76
2022/03/22 02:36:45;;;;;;;36.78;16.83;;;;;;;2.40;nan;103662.31;4966136;28;20039;-76
2022/03/22 02:39:11;;;;;;;29.85;14.63;;;;;;;2.38;nan;103662.44;4967328;28;20071;-77
2022/03/22 02:41:37;;;;;;;30.48;15.10;;;;;;;2.36;nan;103667.00;4962546;28;20057;-76
2022/03/22 02:44:02;;;;;;;32.08;15.40;;;;;;;2.33;nan;103667.22;4968325;28;20427;-76
2022/03/22 02:46:28;;;;;;;30.27;15.18;;;;;;;2.24;nan;103661.84;4966042;28;20408;-77
2022/03/22 02:48:54;;;;;;;31.48;15.80;;;;;;;2.16;nan;103661.63;4972270;28;20764;-77
2022/03/22 02:51:20;;;;;;;27.65;14.93;;;;;;;2.16;nan;103656.34;4968620;28;20051;-77
2022/03/22 02:53:46;;;;;;;30.20;13.98;;;;;;;2.15;nan;103659.91;4973178;28;20093;-77
2022/03/22 02:56:12;;;;;;;29.67;15.30;;;;;;;2.16;nan;103659.00;4965784;28;20034;-77
2022/03/22 02:58:39;;;;;;;32.13;16.45;;;;;;;2.17;nan;103664.16;4971513;28;20034;-76
2022/03/22 03:01:05;;;;;;;27.20;15.60;;;;;;;2.19;nan;103664.03;4971123;28;20027;-76
2022/03/22 03:03:32;;;;;;;37.33;16.02;;;;;;;2.19;nan;103664.88;4972418;28;20377;-76
2022/03/22 03:05:58;;;;;;;31.52;15.98;;;;;;;2.20;nan;103665.72;4966961;28;20550;-76
2022/03/22 03:08:26;;;;;;;33.85;15.07;;;;;;;2.18;nan;103657.91;4967673;28;20121;-76
2022/03/22 03:10:53;;;;;;;33.45;15.40;;;;;;;2.16;nan;103665.13;4966274;28;20030;-77
2022/03/22 03:13:18;;;;;;;34.58;15.75;;;;;;;2.15;nan;103673.16;4968894;28;20063;-76
2022/03/22 03:15:44;;;;;;;41.10;14.55;;;;;;;2.13;nan;103676.75;4970962;28;20109;-76
2022/03/22 03:18:10;;;;;;;34.72;15.90;;;;;;;2.10;nan;103666.41;4973215;28;20041;-76
2022/03/22 03:20:36;;;;;;;33.10;14.65;;;;;;;2.08;nan;103668.34;4969848;28;20473;-76
2022/03/22 03:23:01;;;;;;;29.60;14.88;;;;;;;2.06;nan;103667.63;4965560;28;20038;-77
2022/03/22 03:25:28;;;;;;;35.13;15.15;;;;;;;2.04;nan;103682.78;4970721;28;20023;-76
2022/03/22 03:27:53;;;;;;;34.53;15.10;;;;;;;2.00;nan;103681.34;4970038;28;20161;-77
2022/03/22 03:30:19;;;;;;;29.33;14.15;;;;;;;1.99;nan;103684.13;4967809;28;20030;-76
2022/03/22 03:32:45;;;;;;;30.63;14.35;;;;;;;1.97;nan;103686.84;4968614;28;20435;-76
2022/03/22 03:35:10;;;;;;;32.22;15.40;;;;;;;1.96;nan;103684.31;4967833;28;20110;-76
2022/03/22 03:37:37;;;;;;;29.60;13.73;;;;;;;1.93;nan;103687.22;4970242;28;20066;-76
2022/03/22 03:40:04;;;;;;;32.38;14.18;;;;;;;1.92;nan;103689.03;4970386;28;20030;-76
2022/03/22 03:42:29;;;;;;;27.38;13.32;;;;;;;1.90;nan;103690.94;4967227;28;20034;-76
2022/03/22 03:47:39;;;;;;;27.48;14.18;;;;;;;1.86;nan;103694.78;4968398;28;20124;-76
2022/03/22 03:50:06;;;;;;;30.88;13.93;;;;;;;1.84;nan;103693.22;4966578;28;20064;-75
2022/03/22 03:52:36;;;;;;;32.10;14.38;;;;;;;1.81;nan;103686.38;4964554;28;20035;-77
2022/03/22 03:55:05;;;;;;;25.10;13.93;;;;;;;1.77;nan;103685.75;4970345;28;20038;-77
2022/03/22 03:57:32;;;;;;;29.23;14.57;;;;;;;1.76;nan;103692.00;4966465;28;20034;-76
2022/03/22 03:59:58;;;;;;;25.73;13.73;;;;;;;1.73;nan;103694.03;4964408;28;20054;-77
2022/03/22 04:02:24;;;;;;;29.27;14.45;;;;;;;1.72;nan;103687.06;4969883;28;20452;-76
2022/03/22 04:04:53;;;;;;;29.60;14.80;;;;;;;1.70;nan;103696.94;4969055;28;20050;-76
2022/03/22 04:07:21;;;;;;;29.90;14.75;;;;;;;1.67;nan;103708.59;4970238;28;20034;-76
2022/03/22 04:09:47;;;;;;;31.35;15.70;;;;;;;1.65;nan;103704.38;4964628;28;20035;-76
2022/03/22 04:12:13;;;;;;;31.05;14.15;;;;;;;1.62;nan;103700.16;4966789;28;20029;-77
2022/03/22 04:14:39;;;;;;;25.70;13.70;;;;;;;1.59;nan;103705.66;4966342;28;20026;-76
2022/03/22 04:17:07;;;;;;;30.25;14.88;;;;;;;1.56;nan;103697.13;4967095;28;20035;-77
2022/03/22 04:19:35;;;;;;;27.10;13.85;;;;;;;1.52;nan;103707.94;4967815;28;20031;-76
2022/03/22 04:22:02;;;;;;;27.80;13.30;;;;;;;1.49;nan;103702.91;4967544;28;20023;-76
2022/03/22 04:24:28;;;;;;;23.33;12.95;;;;;;;1.45;nan;103696.16;4970849;28;20023;-76
2022/03/22 04:26:54;;;;;;;24.85;13.05;;;;;;;1.42;nan;103701.66;4968958;28;20061;-76
2022/03/22 04:34:49;;;;;;;25.25;12.52;;;;;;;1.31;nan;103703.44;4966376;28;20065;-77
2022/03/22 04:37:16;;;;;;;23.02;13.05;;;;;;;1.27;nan;103702.81;4969963;28;20054;-76
2022/03/22 04:39:43;;;;;;;30.25;13.95;;;;;;;1.27;nan;103708.13;4968313;28;20042;-76
2022/03/22 04:42:10;;;;;;;26.15;12.50;;;;;;;1.25;nan;103703.88;4969027;28;20392;-76
2022/03/22 04:44:35;;;;;;;25.23;13.93;;;;;;;1.23;nan;103701.34;4963286;28;20027;-76
2022/03/22 04:47:02;;;;;;;23.92;12.85;;;;;;;1.20;nan;103698.94;4968440;28;20400;-75
2022/03/22 04:49:28;;;;;;;26.10;12.90;;;;;;;1.18;nan;103708.78;4966170;28;20061;-76
2022/03/22 04:57:25;;;;;;;24.20;13.38;;;;;;;1.09;nan;103704.19;4961379;28;20069;-75
2022/03/22 04:59:50;;;;;;;26.17;13.02;;;;;;;1.06;nan;103704.41;4965430;28;20050;-76
2022/03/22 05:02:16;;;;;;;25.65;13.52;;;;;;;1.05;nan;103708.00;4964161;28;20999;-78
2022/03/22 05:04:43;;;;;;;25.02;13.60;;;;;;;1.03;nan;103715.19;4965677;28;20045;-76
2022/03/22 05:07:08;;;;;;;26.77;13.35;;;;;;;1.01;nan;103710.03;4969611;28;20031;-76
2022/03/22 05:09:35;;;;;;;25.27;13.23;;;;;;;0.99;nan;103713.75;4962929;28;20081;-76
2022/03/22 05:12:02;;;;;;;27.02;12.98;;;;;;;0.87;nan;103708.38;4967477;28;20106;-76
2022/03/22 05:14:36;;;;;;;25.30;13.48;;;;;;;0.80;nan;103714.25;4969194;28;20022;-77
2022/03/22 05:17:02;;;;;;;29.45;14.30;;;;;;;0.84;nan;103716.53;4964728;28;20041;-77
2022/03/22 05:19:28;;;;;;;28.48;14.70;;;;;;;0.85;nan;103715.59;4960130;28;20037;-76
2022/03/22 05:21:55;;;;;;;27.88;14.05;;;;;;;0.86;nan;103719.91;4962528;28;20026;-77
2022/03/22 05:24:20;;;;;;;25.63;13.75;;;;;;;0.87;nan;103713.66;4963693;28;20023;-76
2022/03/22 05:26:46;;;;;;;30.92;15.27;;;;;;;0.88;nan;103710.06;4962391;28;20303;-76
2022/03/22 05:29:13;;;;;;;24.17;13.38;;;;;;;0.87;nan;103703.09;4968803;28;20045;-77
2022/03/22 05:31:39;;;;;;;29.67;14.07;;;;;;;0.89;nan;103717.03;4962129;28;20020;-76
2022/03/22 05:34:05;;;;;;;27.02;13.30;;;;;;;0.92;nan;103712.50;4966901;28;20042;-75
2022/03/22 05:36:31;;;;;;;32.58;14.70;;;;;;;0.93;nan;103704.47;4967123;28;21522;-75
2022/03/22 05:38:56;;;;;;;32.97;15.18;;;;;;;0.96;nan;103708.69;4967224;28;20041;-76
2022/03/22 05:41:22;;;;;;;32.50;13.85;;;;;;;0.98;nan;103707.63;4960661;28;20023;-76
2022/03/22 05:43:48;;;;;;;33.67;14.25;;;;;;;1.01;nan;103707.38;4962797;28;20023;-76
2022/03/22 05:46:16;;;;;;;36.67;14.40;;;;;;;1.05;nan;103719.41;4965357;28;20026;-76
2022/03/22 05:48:43;;;;;;;29.98;13.90;;;;;;;1.09;nan;103712.97;4964148;28;20035;-76
2022/03/22 05:51:09;;;;;;;25.33;13.63;;;;;;;1.15;nan;103709.84;4968004;28;20023;-76
2022/03/22 05:53:35;;;;;;;31.50;14.68;;;;;;;1.24;nan;103720.69;4961209;28;20042;-76
2022/03/22 05:56:00;;;;;;;28.00;13.68;;;;;;;1.28;nan;103714.25;4968985;28;20027;-76
2022/03/22 05:58:26;;;;;;;32.75;14.27;;;;;;;1.36;nan;103723.25;4959938;28;20700;-76
2022/03/22 06:00:52;;;;;;;33.83;16.83;;;;;;;1.44;nan;103722.69;4960524;28;20501;-76
2022/03/22 06:03:18;;;;;;;34.58;17.98;;;;;;;1.51;nan;103730.03;4963536;28;20054;-76
2022/03/22 06:05:43;;;;;;;38.35;17.73;;;;;;;1.59;nan;103731.25;4961549;28;20135;-76
2022/03/22 06:08:09;;;;;;;35.13;16.95;;;;;;;1.67;nan;103732.38;4965578;28;20027;-76
2022/03/22 06:10:34;;;;;;;33.22;17.25;;;;;;;1.77;nan;103735.97;4962886;28;20728;-77
2022/03/22 06:13:01;;;;;;;31.55;16.42;;;;;;;1.90;nan;103737.69;4960912;28;20031;-76
2022/03/22 06:15:31;;;;;;;33.42;16.52;;;;;;;2.00;nan;103747.47;4968233;28;20030;-77
2022/03/22 06:17:58;;;;;;;31.50;15.40;;;;;;;2.08;nan;103739.75;4961987;28;20031;-76
2022/03/22 06:20:44;;;;;;;29.35;15.80;;;;;;;2.07;nan;103738.06;4957687;28;20023;-76
2022/03/22 06:23:12;;;;;;;34.60;15.05;;;;;;;2.16;nan;103743.63;4967464;28;20047;-77
2022/03/22 06:25:39;;;;;;;34.78;15.50;;;;;;;2.19;nan;103751.31;4969921;28;20087;-77
2022/03/22 06:28:06;;;;;;;32.60;15.98;;;;;;;2.21;nan;103747.59;4964937;28;20551;-77
2022/03/22 06:30:33;;;;;;;27.60;14.57;;;;;;;2.24;nan;103747.34;4963363;28;20050;-77
2022/03/22 06:33:22;;;;;;;30.73;15.20;;;;;;;2.29;nan;103750.47;4963468;28;20037;-77
2022/03/22 06:35:48;;;;;;;33.17;16.02;;;;;;;2.35;nan;103754.47;4964602;28;20039;-77
2022/03/22 06:38:13;;;;;;;35.42;16.02;;;;;;;2.41;nan;103749.50;4963975;28;20037;-77
2022/03/22 06:40:39;;;;;;;35.72;15.38;;;;;;;2.49;nan;103746.25;4966412;28;20031;-77
2022/03/22 06:43:07;;;;;;;30.73;15.30;;;;;;;2.56;nan;103739.53;4964324;28;20492;-77
2022/03/22 06:45:33;;;;;;;37.60;15.68;;;;;;;2.66;nan;103736.97;4960687;28;20027;-78
2022/03/22 06:48:00;;;;;;;35.22;16.00;;;;;;;2.76;nan;103735.28;4963572;28;20033;-77
2022/03/22 06:50:26;;;;;;;40.97;16.65;;;;;;;2.88;nan;103738.75;4966993;28;20494;-77
2022/03/22 06:52:52;;;;;;;33.75;17.00;;;;;;;2.98;nan;103737.88;4969491;28;20031;-77
2022/03/22 06:55:22;;;;;;;34.22;17.48;;;;;;;3.10;nan;103740.50;4967373;28;20034;-78
2022/03/22 06:57:49;;;;;;;41.70;19.08;;;;;;;3.21;nan;103735.97;4966848;28;20037;-78
2022/03/22 07:00:15;;;;;;;43.40;19.20;;;;;;;3.31;nan;103739.56;4962705;28;20531;-78
2022/03/22 07:02:40;;;;;;;40.72;19.33;;;;;;;3.43;nan;103736.88;4968757;28;20030;-78
2022/03/22 07:05:08;;;;;;;39.50;18.65;;;;;;;3.54;nan;103739.44;4969525;28;20496;-78
2022/03/22 07:07:34;;;;;;;36.10;17.15;;;;;;;3.65;nan;103731.44;4956935;28;20027;-78
2022/03/22 07:09:59;;;;;;;36.50;18.05;;;;;;;3.77;nan;103733.06;4962532;28;20033;-78
2022/03/22 07:12:25;;;;;;;43.22;20.13;;;;;;;3.88;nan;103740.94;4967299;28;20032;-78
2022/03/22 07:14:50;;;;;;;38.97;16.42;;;;;;;3.99;nan;103736.53;4963586;28;20098;-78
2022/03/22 07:17:16;;;;;;;45.00;18.90;;;;;;;4.11;nan;103743.41;4961320;28;20936;-78
2022/03/22 07:19:42;;;;;;;36.88;18.40;;;;;;;4.22;nan;103736.22;4962487;28;20377;-79
2022/03/22 07:22:08;;;;;;;38.25;18.65;;;;;;;4.37;nan;103735.88;4967957;28;20050;-78
2022/03/22 07:24:34;;;;;;;40.85;18.40;;;;;;;4.50;nan;103739.97;4957704;28;20054;-78
2022/03/22 07:27:00;;;;;;;36.97;17.50;;;;;;;4.64;nan;103738.72;4966111;28;20019;-78
2022/03/22 07:29:25;;;;;;;31.45;16.00;;;;;;;4.78;nan;103742.81;4965277;28;20480;-78
2022/03/22 07:31:51;;;;;;;38.53;17.67;;;;;;;4.91;nan;103739.91;4968988;28;20101;-78
2022/03/22 07:34:19;;;;;;;36.53;17.05;;;;;;;5.05;nan;103736.88;4972372;28;20046;-77
2022/03/22 07:36:46;;;;;;;34.53;16.20;;;;;;;5.20;nan;103732.81;4971591;28;20023;-78
2022/03/22 07:39:13;;;;;;;29.50;15.48;;;;;;;5.36;nan;103742.88;4970762;28;20500;-79
2022/03/22 07:41:43;;;;;;;29.83;15.35;;;;;;;5.48;nan;103741.75;4969485;28;20026;-80
2022/03/22 07:44:12;;;;;;;31.92;16.42;;;;;;;5.60;nan;103743.28;4965390;28;20056;-79
2022/03/22 07:46:37;;;;;;;34.53;15.75;;;;;;;5.74;nan;103739.34;4969166;28;20031;-79
2022/03/22 07:54:31;;;;;;;27.08;14.20;;;;;;;6.20;nan;103738.53;4966959;28;20447;-80
2022/03/22 07:56:56;;;;;;;25.42;15.20;;;;;;;6.33;nan;103739.06;4971247;28;20027;-79
2022/03/22 07:59:24;;;;;;;29.75;14.63;;;;;;;6.47;nan;103747.56;4970531;28;20023;-79
2022/03/22 08:01:51;;;;;;;27.20;14.50;;;;;;;6.60;nan;103732.03;4967053;28;20423;-79
2022/03/22 08:04:17;;;;;;;26.85;13.98;;;;;;;6.74;nan;103734.22;4972528;28;20026;-78
2022/03/22 08:06:43;;;;;;;29.45;15.52;;;;;;;6.86;nan;103738.34;4963193;28;20029;-79
2022/03/22 08:09:09;;;;;;;28.00;14.32;;;;;;;6.98;nan;103734.47;4969393;28;20110;-79
2022/03/22 08:11:35;;;;;;;30.00;15.98;;;;;;;7.11;nan;103730.59;4968830;28;20548;-80
2022/03/22 08:14:02;;;;;;;28.20;14.60;;;;;;;7.24;nan;103734.56;4968718;28;20050;-79
2022/03/22 08:19:29;;;;;;;;;;;;;;;;;;;;;
2022/03/22 08:21:59;;;;;;;26.58;13.82;;;;;;;7.68;nan;103739.91;4960763;28;20039;-81
2022/03/22 08:24:25;;;;;;;24.02;14.25;;;;;;;7.80;nan;103738.66;4965916;28;20044;-81
2022/03/22 08:26:58;;;;;;;28.17;14.82;;;;;;;7.91;nan;103742.06;4962784;28;20547;-82
2022/03/22 08:29:25;;;;;;;29.55;14.45;;;;;;;8.06;nan;103743.16;4961359;28;20045;-81
2022/03/22 08:31:52;;;;;;;23.90;14.02;;;;;;;8.22;nan;103735.22;4985045;23;20066;-79
2022/03/22 08:34:19;;;;;;;26.77;13.45;;;;;;;8.38;nan;103739.84;4971143;28;20065;-79
2022/03/22 08:36:45;;;;;;;24.77;14.05;;;;;;;8.48;nan;103741.41;4968877;28;20596;-80
2022/03/22 08:39:11;;;;;;;26.02;14.15;;;;;;;8.61;nan;103735.56;4964198;28;20155;-79
2022/03/22 08:41:37;;;;;;;26.63;14.27;;;;;;;8.75;nan;103740.31;4943492;29;20027;-79
2022/03/22 08:44:02;;;;;;;22.63;13.23;;;;;;;8.91;nan;103736.00;4940178;28;20028;-79
2022/03/22 08:46:28;;;;;;;22.38;14.45;;;;;;;9.07;nan;103730.69;4941046;28;20031;-80
2022/03/22 08:48:54;;;;;;;28.42;13.60;;;;;;;9.22;nan;103729.03;4942876;28;20083;-79
2022/03/22 08:51:21;;;;;;;24.00;13.27;;;;;;;9.37;nan;103730.03;4947395;28;20051;-79
2022/03/22 08:53:47;;;;;;;22.85;13.25;;;;;;;9.50;nan;103732.19;4947474;28;20389;-79
2022/03/22 08:56:13;;;;;;;28.20;14.32;;;;;;;9.63;nan;103737.03;4949897;28;20476;-80
2022/03/22 08:58:39;;;;;;;26.83;13.88;;;;;;;9.80;nan;103735.19;4940195;29;20038;-81
2022/03/22 09:01:05;;;;;;;24.65;13.43;;;;;;;9.95;nan;103728.97;4941848;28;20031;-79
2022/03/22 09:03:32;;;;;;;23.13;13.52;;;;;;;10.04;nan;103729.75;4941782;29;20035;-81
2022/03/22 09:06:11;;;;;;;23.63;13.23;;;;;;;10.16;nan;103722.19;4948533;28;20486;-80
2022/03/22 09:08:39;;;;;;;24.15;13.80;;;;;;;10.33;nan;103718.50;4944252;28;20248;-80
2022/03/22 09:11:06;;;;;;;26.00;14.00;;;;;;;10.50;nan;103717.41;4934628;29;20024;-80
2022/03/22 09:13:33;;;;;;;21.30;13.10;;;;;;;10.68;nan;103711.78;4935656;29;20028;-79
2022/03/22 09:15:59;;;;;;;23.08;13.30;;;;;;;10.83;nan;103711.88;4938991;29;20397;-81
2022/03/22 09:18:26;;;;;;;19.20;12.65;;;;;;;10.95;nan;103697.03;4937888;29;20031;-80
2022/03/22 09:20:52;;;;;;;22.10;13.15;;;;;;;11.11;nan;103699.56;4936190;29;20500;-80
2022/03/22 09:23:19;;;;;;;24.20;12.90;;;;;;;11.25;nan;103699.81;4936206;29;20039;-79
2022/03/22 09:25:46;;;;;;;28.13;12.38;;;;;;;11.41;nan;103699.66;4938003;28;20034;-80
2022/03/22 09:28:12;;;;;;;19.10;12.00;;;;;;;11.52;nan;103691.19;4935157;29;20024;-79
2022/03/22 09:30:39;;;;;;;21.73;11.95;;;;;;;11.62;nan;103693.59;4939426;29;20488;-80
2022/03/22 09:33:07;;;;;;;21.55;12.23;;;;;;;11.77;nan;103697.97;4934085;29;20414;-80
2022/03/22 09:35:33;;;;;;;19.67;11.57;;;;;;;11.96;nan;103685.03;4936693;29;20038;-78
2022/03/22 09:37:59;;;;;;;19.30;11.27;;;;;;;12.09;nan;103688.75;4941377;29;20086;-81
2022/03/22 09:40:27;;;;;;;18.75;12.45;;;;;;;12.21;nan;103683.72;4934456;28;20023;-79
2022/03/22 09:42:54;;;;;;;21.83;11.82;;;;;;;12.36;nan;103681.00;4941170;29;20045;-79
2022/03/22 09:45:28;;;;;;;19.35;10.88;;;;;;;12.48;nan;103673.28;4937873;29;20499;-79
2022/03/22 09:47:56;;;;;;;17.90;11.82;;;;;;;12.57;nan;103673.00;4934219;28;20039;-79
2022/03/22 09:51:44;;;;;;;19.58;10.90;;;;;;;12.69;nan;103666.06;4938902;28;20498;-79
2022/03/22 09:53:11;;;;;;;17.95;10.70;;;;;;;12.81;nan;103663.72;4949452;29;20031;-79
2022/03/22 09:55:37;;;;;;;18.17;10.70;;;;;;;12.94;nan;103663.03;4949382;28;20054;-79
2022/03/22 09:58:03;;;;;;;14.45;8.77;;;;;;;13.00;nan;103659.53;4948062;28;20027;-79
2022/03/22 10:00:28;;;;;;;17.35;8.68;;;;;;;13.04;nan;103665.38;4951521;28;20023;-79
2022/03/22 10:02:54;;;;;;;13.52;9.13;;;;;;;13.06;nan;103660.63;4948353;28;20556;-78
2022/03/22 10:05:23;;;;;;;15.52;8.45;;;;;;;13.14;nan;103657.81;4951114;28;20114;-81
2022/03/22 10:07:56;;;;;;;18.60;9.70;;;;;;;13.20;nan;103651.66;4947109;28;20035;-79
2022/03/22 10:10:22;;;;;;;13.55;8.98;;;;;;;13.36;nan;103654.06;4971968;23;20054;-82
2022/03/22 10:12:56;;;;;;;13.77;8.73;;;;;;;13.42;nan;103655.13;4971841;28;20042;-82
2022/03/22 10:15:32;;;;;;;12.68;8.43;;;;;;;13.52;nan;103655.63;4972248;28;20073;-81
2022/03/22 10:18:24;;;;;;;14.90;9.35;;;;;;;13.61;nan;103655.28;4969457;28;20105;-82
2022/03/22 10:20:59;;;;;;;15.48;9.63;;;;;;;13.76;nan;103649.78;4971601;28;20026;-81
2022/03/22 10:23:25;;;;;;;12.73;9.15;;;;;;;13.90;nan;103642.59;4977695;28;20121;-81
2022/03/22 10:26:01;;;;;;;13.45;8.52;;;;;;;14.02;nan;103645.56;4973933;28;20697;-82
2022/03/22 10:28:27;;;;;;;15.85;8.95;;;;;;;14.16;nan;103642.69;4974655;28;20110;-81
2022/03/22 10:30:57;;;;;;;13.55;8.55;;;;;;;14.29;nan;103647.31;4977792;28;20112;-81
2022/03/22 10:33:23;;;;;;;16.08;9.52;;;;;;;14.40;nan;103638.66;4972685;28;20034;-82
2022/03/22 10:35:48;;;;;;;16.15;9.40;;;;;;;14.42;nan;103636.56;4973097;28;20041;-81
2022/03/22 10:38:18;;;;;;;16.80;8.85;;;;;;;14.49;nan;103633.91;4979757;28;20038;-82
2022/03/22 10:40:45;;;;;;;15.98;9.52;;;;;;;14.49;nan;103633.91;4973328;28;20079;-82
2022/03/22 10:43:14;;;;;;;17.05;9.82;;;;;;;14.55;nan;103624.19;4979032;28;20567;-82
2022/03/22 10:45:48;;;;;;;14.80;8.70;;;;;;;14.60;nan;103621.72;4980376;28;20050;-82
2022/03/22 10:48:26;;;;;;;15.43;9.63;;;;;;;14.60;nan;103629.81;4976272;28;20037;-81
2022/03/22 10:50:53;;;;;;;11.50;8.65;;;;;;;14.66;nan;103618.19;4978046;28;20031;-81
2022/03/22 10:53:21;;;;;;;17.45;8.98;;;;;;;14.72;nan;103626.31;4976902;28;20037;-82
2022/03/22 10:55:47;;;;;;;17.05;9.70;;;;;;;14.81;nan;103621.53;4976844;28;20061;-81
2022/03/22 10:58:17;;;;;;;14.75;9.95;;;;;;;14.92;nan;103620.91;4972829;28;20029;-82
2022/03/22 11:00:45;;;;;;;14.40;10.05;;;;;;;15.03;nan;103620.28;4974481;28;20075;-82
2022/03/22 11:03:11;;;;;;;14.73;10.30;;;;;;;15.06;nan;103622.56;4977034;28;21218;-81
2022/03/22 11:05:40;;;;;;;15.15;10.55;;;;;;;15.11;nan;103613.84;4975008;28;20159;-83
2022/03/22 11:08:06;;;;;;;13.55;9.30;;;;;;;15.22;nan;103612.38;4976801;28;20035;-82
2022/03/22 11:10:32;;;;;;;14.35;9.50;;;;;;;15.33;nan;103609.88;4975860;28;20234;-82
2022/03/22 11:12:59;;;;;;;14.60;9.45;;;;;;;15.43;nan;103612.94;4966048;28;20025;-82
2022/03/22 11:15:31;;;;;;;12.80;9.80;;;;;;;15.54;nan;103606.06;4974711;28;20030;-83
2022/03/22 11:17:57;;;;;;;14.00;9.60;;;;;;;15.61;nan;103608.78;4971889;28;20500;-82
2022/03/22 11:20:25;;;;;;;14.55;8.77;;;;;;;15.68;nan;103598.81;4980996;28;20034;-83
2022/03/22 11:22:54;;;;;;;13.50;8.80;;;;;;;15.71;nan;103599.19;4968936;28;20031;-82
2022/03/22 11:25:36;;;;;;;15.60;8.85;;;;;;;15.76;nan;103590.44;4982565;28;20037;-83
2022/03/22 11:28:08;;;;;;;13.25;8.60;;;;;;;15.90;nan;103592.06;4974329;28;20042;-82
2022/03/22 11:30:36;;;;;;;12.23;9.23;;;;;;;16.01;nan;103591.41;4975779;28;20069;-83
2022/03/22 11:36:20;;;;;;;13.68;8.55;;;;;;;16.39;nan;103578.91;4977086;28;20037;-83
2022/03/22 11:38:53;;;;;;;16.08;9.00;;;;;;;16.53;nan;103586.72;4974234;28;20511;-83
2022/03/22 11:44:24;;;;;;;15.32;10.18;;;;;;;16.71;nan;103582.47;4972643;28;20050;-81
2022/03/22 11:47:14;;;;;;;14.60;10.20;;;;;;;16.90;nan;103582.28;4972778;28;20026;-82
2022/03/22 11:50:00;;;;;;;19.60;9.85;;;;;;;17.19;nan;103575.34;4971409;28;20038;-81
2022/03/22 11:52:35;;;;;;;13.88;10.02;;;;;;;17.47;nan;103582.16;4972002;28;20468;-82
2022/03/22 11:55:10;;;;;;;14.40;10.55;;;;;;;17.70;nan;103576.06;4962101;28;20047;-82
2022/03/22 11:57:45;;;;;;;12.38;9.07;;;;;;;17.90;nan;103567.66;4967999;28;20615;-82
2022/03/22 12:00:14;;;;;;;15.55;9.90;;;;;;;18.05;nan;103568.91;4976894;28;20428;-81
2022/03/22 12:02:43;;;;;;;13.82;9.93;;;;;;;18.17;nan;103555.41;4964142;28;20503;-82
2022/03/22 12:05:09;;;;;;;17.08;10.05;;;;;;;18.32;nan;103553.09;4967750;28;20031;-81
2022/03/22 12:07:36;;;;;;;15.23;9.82;;;;;;;18.49;nan;103546.97;4969849;28;20035;-82
2022/03/22 12:10:05;;;;;;;19.05;10.00;;;;;;;18.67;nan;103555.06;4980056;28;20030;-82